Terminal Aerodrome Forecast
Issued by NWS

Home | Current Version | Previous Version | Text Only | Print | Product List | Glossary On
Versions: 1 2 3 4 5 6 7 8 9 10 11 12 13 14 15 16 17 18 19 20 21 22 23 24 25 26 27 28 29 30 31 32
000
FTUS44 KHGX 240918 AAB
TAFCXO
TAF AMD
KCXO 240918Z 2409/2506 VRB03KT 3SM BR BKN015
      TEMPO 2409/2413 1SM BR SCT008 OVC010
     FM241500 17006KT P6SM SCT030
     FM242100 15005KT P6SM VCTS SCT045CB
     FM250200 13003KT P6SM SCT250=

USA.gov is the U.S. government's official web portal to all federal, state and local government web resources and services.